createdAt,value
2018-06-02T00:00:30.551Z,0.00
2018-06-02T00:01:30.544Z,0.00
2018-06-02T00:02:30.538Z,0.00
2018-06-02T00:03:30.533Z,0.00
2018-06-02T00:04:30.732Z,0.00
2018-06-02T00:05:30.524Z,0.00
2018-06-02T00:06:30.516Z,0.00
2018-06-02T00:08:30.507Z,0.00
2018-06-02T00:09:30.501Z,0.00
2018-06-02T00:10:30.494Z,0.00
2018-06-02T00:11:30.488Z,0.00
2018-06-02T00:12:30.484Z,0.00
2018-06-02T00:13:30.477Z,0.00
2018-06-02T00:14:30.472Z,0.00
2018-06-02T00:15:30.465Z,0.00
2018-06-02T00:16:30.461Z,0.00
2018-06-02T00:17:30.454Z,0.00
2018-06-02T00:18:30.450Z,0.00
2018-06-02T00:19:30.445Z,0.00
2018-06-02T00:20:30.438Z,0.00
2018-06-02T00:21:30.435Z,0.00
2018-06-02T00:22:30.428Z,0.00
2018-06-02T00:23:30.423Z,0.00
2018-06-02T00:24:30.416Z,0.00
2018-06-02T00:25:30.420Z,0.00
2018-06-02T00:26:30.407Z,0.00
2018-06-02T00:27:30.399Z,0.00
2018-06-02T00:28:30.798Z,0.00
2018-06-02T00:29:30.391Z,0.00
2018-06-02T00:30:30.383Z,0.00
2018-06-02T00:31:30.379Z,0.00
2018-06-02T00:32:30.375Z,0.00
2018-06-02T00:33:30.368Z,0.00
2018-06-02T00:34:30.361Z,0.00
2018-06-02T00:35:30.359Z,0.00
2018-06-02T00:36:30.352Z,0.00
2018-06-02T00:37:30.346Z,0.00
2018-06-02T00:38:30.338Z,0.00
2018-06-02T00:39:30.334Z,0.00
2018-06-02T00:40:30.329Z,0.00
2018-06-02T00:41:30.322Z,0.00
2018-06-02T00:42:30.317Z,0.00
2018-06-02T00:43:30.311Z,0.00
2018-06-02T00:44:30.306Z,0.00
2018-06-02T00:45:30.301Z,0.00
2018-06-02T00:46:30.298Z,0.00
2018-06-02T00:47:30.289Z,0.00
2018-06-02T00:48:30.285Z,0.00
2018-06-02T00:49:30.283Z,0.00
2018-06-02T00:50:30.277Z,0.00
2018-06-02T00:51:30.267Z,0.00
2018-06-02T00:52:30.262Z,0.00
2018-06-02T00:53:30.258Z,0.00
2018-06-02T00:54:30.252Z,0.00
2018-06-02T00:55:30.247Z,0.00
2018-06-02T00:56:30.246Z,0.00
2018-06-02T00:57:30.236Z,0.00
2018-06-02T00:58:30.236Z,0.00
2018-06-02T00:59:30.226Z,0.00
2018-06-02T01:00:30.222Z,0.00
2018-06-02T01:01:30.217Z,0.00
2018-06-02T01:02:30.209Z,0.00
2018-06-02T01:03:30.205Z,0.00
2018-06-02T01:04:30.203Z,0.00
2018-06-02T01:05:30.235Z,0.00
2018-06-02T01:06:30.194Z,0.00
2018-06-02T01:07:30.189Z,0.00
2018-06-02T01:08:30.181Z,0.00
2018-06-02T01:09:30.176Z,0.00
2018-06-02T01:10:30.170Z,0.00
2018-06-02T01:11:30.167Z,0.00
2018-06-02T01:12:30.161Z,0.00
2018-06-02T01:13:30.157Z,0.00
2018-06-02T01:14:30.150Z,0.00
2018-06-02T01:15:30.147Z,0.00
2018-06-02T01:16:30.145Z,0.00
2018-06-02T01:17:30.137Z,0.00
2018-06-02T01:18:30.130Z,0.00
2018-06-02T01:19:30.125Z,0.00
2018-06-02T01:20:30.122Z,0.00
2018-06-02T01:21:30.116Z,0.00
2018-06-02T01:22:30.109Z,0.00
2018-06-02T01:23:30.105Z,0.00
2018-06-02T01:24:30.100Z,0.00
2018-06-02T01:25:30.096Z,0.00
2018-06-02T01:26:30.089Z,0.00
2018-06-02T01:27:30.087Z,0.00
2018-06-02T01:28:30.080Z,0.00
2018-06-02T01:29:30.079Z,0.00
2018-06-02T01:30:30.072Z,0.00
2018-06-02T01:31:30.065Z,0.00
2018-06-02T01:32:30.059Z,0.00
2018-06-02T01:33:30.056Z,0.00
2018-06-02T01:34:30.052Z,0.00
2018-06-02T01:35:30.045Z,0.00
2018-06-02T01:36:30.041Z,0.00
2018-06-02T01:37:30.038Z,0.00
2018-06-02T01:38:30.029Z,0.00
2018-06-02T01:39:30.025Z,0.00
2018-06-02T01:40:30.424Z,0.00
2018-06-02T01:41:30.016Z,0.00
2018-06-02T01:42:30.010Z,0.00
2018-06-02T01:43:30.005Z,0.00
2018-06-02T01:44:29.999Z,0.00
2018-06-02T01:45:29.995Z,0.00
2018-06-02T01:46:29.992Z,0.00
2018-06-02T01:47:30.189Z,0.00
2018-06-02T01:48:29.986Z,0.00
2018-06-02T01:49:29.976Z,0.00
2018-06-02T01:50:29.971Z,0.00
2018-06-02T01:51:29.966Z,0.00
2018-06-02T01:52:29.961Z,0.00
2018-06-02T01:53:29.957Z,0.00
2018-06-02T01:54:29.951Z,0.00
2018-06-02T01:55:29.947Z,0.00
2018-06-02T01:56:29.941Z,0.00
2018-06-02T01:57:29.943Z,0.00
2018-06-02T01:58:29.932Z,0.00
2018-06-02T01:59:29.926Z,0.00
2018-06-02T02:00:29.921Z,0.00
2018-06-02T02:01:29.916Z,0.00
2018-06-02T02:02:29.911Z,0.00
2018-06-02T02:03:29.906Z,0.00
2018-06-02T02:04:29.901Z,0.00
2018-06-02T02:05:29.895Z,0.00
2018-06-02T02:06:29.888Z,0.00
2018-06-02T02:07:29.883Z,0.00
2018-06-02T02:08:29.884Z,0.00
2018-06-02T02:09:29.870Z,0.00
2018-06-02T02:10:29.863Z,0.00
2018-06-02T02:11:29.863Z,0.00
2018-06-02T02:12:29.853Z,0.00
2018-06-02T02:13:29.846Z,0.00
2018-06-02T02:14:29.839Z,0.00
2018-06-02T02:15:29.832Z,0.00
2018-06-02T02:16:29.826Z,0.00
2018-06-02T02:17:29.821Z,0.00
2018-06-02T02:18:29.812Z,0.00
2018-06-02T02:19:29.806Z,0.00
2018-06-02T02:20:29.803Z,0.00
2018-06-02T02:21:29.794Z,0.00
2018-06-02T02:22:29.791Z,0.00
2018-06-02T02:23:29.781Z,0.00
2018-06-02T02:24:29.774Z,0.00
2018-06-02T02:25:29.770Z,0.00
2018-06-02T02:26:29.761Z,0.00
2018-06-02T02:27:29.756Z,0.00
2018-06-02T02:28:29.749Z,0.00
2018-06-02T02:29:29.945Z,0.00
2018-06-02T02:30:29.741Z,0.00
2018-06-02T02:31:29.735Z,0.00
2018-06-02T02:32:29.729Z,0.00
2018-06-02T02:33:29.718Z,0.00
2018-06-02T02:34:29.717Z,0.00
2018-06-02T02:35:29.707Z,0.00
2018-06-02T02:36:29.700Z,0.00
2018-06-02T02:37:29.693Z,0.00
2018-06-02T02:38:29.686Z,0.00
2018-06-02T02:39:29.680Z,0.00
2018-06-02T02:40:29.680Z,0.00
2018-06-02T02:41:29.668Z,0.00
2018-06-02T02:42:29.665Z,0.00
2018-06-02T02:43:29.656Z,0.00
2018-06-02T02:44:29.652Z,0.00
2018-06-02T02:45:29.644Z,0.00
2018-06-02T02:46:29.638Z,0.00
2018-06-02T02:47:29.633Z,0.00
2018-06-02T02:48:29.626Z,0.00
2018-06-02T02:49:29.620Z,0.00
2018-06-02T02:50:29.613Z,0.00
2018-06-02T02:51:29.615Z,0.00
2018-06-02T02:52:29.608Z,0.00
2018-06-02T02:53:29.597Z,0.00
2018-06-02T02:54:29.589Z,0.00
2018-06-02T02:55:29.585Z,0.00
2018-06-02T02:56:29.579Z,4.00
2018-06-02T02:57:29.573Z,4.00
2018-06-02T02:58:29.564Z,0.00
2018-06-02T02:59:29.561Z,4.00
2018-06-02T03:00:29.554Z,4.00
2018-06-02T03:01:29.752Z,4.00
2018-06-02T03:02:29.544Z,4.00
2018-06-02T03:03:29.535Z,4.00
2018-06-02T03:04:29.531Z,8.00
2018-06-02T03:05:29.526Z,4.00
2018-06-02T03:06:29.517Z,8.00
2018-06-02T03:07:29.513Z,8.00
2018-06-02T03:08:29.506Z,8.00
2018-06-02T03:09:29.499Z,8.00
2018-06-02T03:10:29.493Z,8.00
2018-06-02T03:11:29.487Z,8.00
2018-06-02T03:12:29.482Z,12.00
2018-06-02T03:13:29.476Z,12.00
2018-06-02T03:14:29.471Z,12.00
2018-06-02T03:15:29.464Z,12.00
2018-06-02T03:16:29.459Z,16.00
2018-06-02T03:17:29.456Z,20.00
2018-06-02T03:18:29.446Z,20.00
2018-06-02T03:19:29.439Z,24.00
2018-06-02T03:20:29.435Z,24.00
2018-06-02T03:21:29.428Z,28.00
2018-06-02T03:22:29.421Z,36.00
2018-06-02T03:23:29.421Z,36.00
2018-06-02T03:24:29.409Z,48.00
2018-06-02T03:25:29.403Z,52.00
2018-06-02T03:26:29.397Z,52.00
2018-06-02T03:27:29.396Z,64.00
2018-06-02T03:28:29.387Z,72.00
2018-06-02T03:29:29.381Z,88.00
2018-06-02T03:30:29.373Z,104.00
2018-06-02T03:31:29.370Z,116.00
2018-06-02T03:32:29.362Z,140.00
2018-06-02T03:33:29.359Z,156.00
2018-06-02T03:34:29.352Z,160.00
2018-06-02T03:35:29.344Z,176.00
2018-06-02T03:36:29.344Z,192.00
2018-06-02T03:37:29.332Z,192.00
2018-06-02T03:38:29.328Z,228.00
2018-06-02T03:39:29.319Z,256.00
2018-06-02T03:40:29.313Z,284.00
2018-06-02T03:41:29.312Z,288.00
2018-06-02T03:42:29.303Z,284.00
2018-06-02T03:43:29.295Z,300.00
2018-06-02T03:44:29.288Z,312.00
2018-06-02T03:45:29.283Z,328.00
2018-06-02T03:46:29.276Z,336.00
2018-06-02T03:47:29.269Z,356.00
2018-06-02T03:48:29.264Z,384.00
2018-06-02T03:49:29.258Z,424.00
2018-06-02T03:50:29.253Z,460.00
2018-06-02T03:51:29.244Z,452.00
2018-06-02T03:52:29.239Z,420.00
2018-06-02T03:53:29.234Z,420.00
2018-06-02T03:54:29.226Z,432.00
2018-06-02T03:55:29.233Z,476.00
2018-06-02T03:56:29.216Z,540.00
2018-06-02T03:57:29.208Z,572.00
2018-06-02T03:58:29.204Z,584.00
2018-06-02T03:59:29.197Z,592.00
2018-06-02T04:00:29.193Z,596.00
2018-06-02T04:01:29.191Z,600.00
2018-06-02T04:02:29.179Z,612.00
2018-06-02T04:03:29.173Z,592.00
2018-06-02T04:04:29.169Z,588.00
2018-06-02T04:05:29.160Z,580.00
2018-06-02T04:06:29.160Z,584.00
2018-06-02T04:07:29.149Z,632.00
2018-06-02T04:08:29.147Z,668.00
2018-06-02T04:09:29.136Z,676.00
2018-06-02T04:10:29.132Z,664.00
2018-06-02T04:11:29.127Z,652.00
2018-06-02T04:12:29.123Z,684.00
2018-06-02T04:13:29.113Z,772.00
2018-06-02T04:14:29.108Z,864.00
2018-06-02T04:15:29.106Z,952.00
2018-06-02T04:16:29.297Z,1048.00
2018-06-02T04:17:29.088Z,1120.00
2018-06-02T04:18:29.082Z,1208.00
2018-06-02T04:20:29.071Z,1396.00
2018-06-02T04:21:29.064Z,1460.00
2018-06-02T04:22:29.058Z,1528.00
2018-06-02T04:23:29.050Z,1608.00
2018-06-02T04:24:29.048Z,1680.00
2018-06-02T04:25:29.043Z,1668.00
2018-06-02T04:26:29.240Z,1532.00
2018-06-02T04:27:29.027Z,1448.00
2018-06-02T04:28:29.027Z,1440.00
2018-06-02T04:29:29.020Z,1428.00
2018-06-02T04:30:29.012Z,1408.00
2018-06-02T04:31:29.009Z,1440.00
2018-06-02T04:32:28.999Z,1480.00
2018-06-02T04:33:28.996Z,1572.00
2018-06-02T04:34:28.985Z,1704.00
2018-06-02T04:35:28.980Z,1808.00
2018-06-02T04:36:28.974Z,1812.00
2018-06-02T04:37:28.971Z,1816.00
2018-06-02T04:38:28.964Z,1792.00
2018-06-02T04:39:28.957Z,1716.00
2018-06-02T04:40:28.952Z,1648.00
2018-06-02T04:41:28.956Z,1720.00
2018-06-02T04:42:28.940Z,1736.00
2018-06-02T04:43:28.936Z,1740.00
2018-06-02T04:44:28.934Z,1712.00
2018-06-02T04:45:28.923Z,1724.00
2018-06-02T04:46:28.917Z,1708.00
2018-06-02T04:47:28.913Z,1792.00
2018-06-02T04:48:28.907Z,1868.00
2018-06-02T04:49:28.908Z,1920.00
2018-06-02T04:50:29.102Z,1888.00
2018-06-02T04:51:28.991Z,1928.00
2018-06-02T04:52:28.891Z,1988.00
2018-06-02T04:53:28.880Z,2152.00
2018-06-02T04:54:28.872Z,2236.00
2018-06-02T04:55:28.867Z,2272.00
2018-06-02T04:56:29.063Z,2268.00
2018-06-02T04:57:28.864Z,2200.00
2018-06-02T04:58:28.851Z,2124.00
2018-06-02T04:59:28.851Z,2040.00
2018-06-02T05:00:28.838Z,2000.00
2018-06-02T05:01:28.837Z,1996.00
2018-06-02T05:02:28.826Z,2128.00
2018-06-02T05:03:28.822Z,2308.00
2018-06-02T05:04:28.835Z,2560.00
2018-06-02T05:05:28.813Z,2744.00
2018-06-02T05:06:29.006Z,2892.00
2018-06-02T05:07:28.804Z,2980.00
2018-06-02T05:08:28.794Z,2960.00
2018-06-02T05:09:28.788Z,2880.00
2018-06-02T05:10:28.784Z,2788.00
2018-06-02T05:11:28.986Z,2252.00
2018-06-02T05:12:28.773Z,1840.00
2018-06-02T05:13:28.767Z,1932.00
2018-06-02T05:14:28.767Z,1688.00
2018-06-02T05:15:28.958Z,1784.00
2018-06-02T05:16:28.749Z,1492.00
2018-06-02T05:17:28.751Z,1516.00
2018-06-02T05:18:28.739Z,1760.00
2018-06-02T05:19:28.733Z,1900.00
2018-06-02T05:20:28.733Z,1928.00
2018-06-02T05:21:28.727Z,1940.00
2018-06-02T05:22:28.721Z,2076.00
2018-06-02T05:23:28.711Z,2084.00
2018-06-02T05:24:28.711Z,2284.00
2018-06-02T05:25:28.704Z,2432.00
2018-06-02T05:26:28.695Z,2380.00
2018-06-02T05:27:28.690Z,2484.00
2018-06-02T05:28:28.684Z,2692.00
2018-06-02T05:29:28.681Z,2692.00
2018-06-02T05:30:28.674Z,2740.00
2018-06-02T05:31:28.667Z,2780.00
2018-06-02T05:32:28.662Z,2840.00
2018-06-02T05:33:28.660Z,2780.00
2018-06-02T05:34:28.655Z,2816.00
2018-06-02T05:35:28.646Z,2816.00
2018-06-02T05:36:28.640Z,2956.00
2018-06-02T05:37:28.639Z,3020.00
2018-06-02T05:38:28.628Z,2612.00
2018-06-02T05:39:28.623Z,2752.00
2018-06-02T05:40:28.626Z,2624.00
2018-06-02T05:41:28.612Z,2768.00
2018-06-02T05:42:28.812Z,2636.00
2018-06-02T05:43:28.602Z,2300.00
2018-06-02T05:44:28.597Z,2356.00
2018-06-02T05:45:28.592Z,2308.00
2018-06-02T05:46:28.584Z,2060.00
2018-06-02T05:47:28.578Z,2144.00
2018-06-02T05:48:28.578Z,2172.00
2018-06-02T05:49:28.568Z,2156.00
2018-06-02T05:50:28.563Z,2032.00
2018-06-02T05:51:28.560Z,2192.00
2018-06-02T05:52:28.553Z,2020.00
2018-06-02T05:53:28.546Z,2200.00
2018-06-02T05:54:28.546Z,2356.00
2018-06-02T05:55:28.536Z,2616.00
2018-06-02T05:56:28.732Z,2580.00
2018-06-02T05:57:28.524Z,2540.00
2018-06-02T05:58:28.519Z,2572.00
2018-06-02T05:59:28.517Z,2692.00
2018-06-02T06:00:28.515Z,2788.00
2018-06-02T06:01:28.507Z,2740.00
2018-06-02T06:02:28.497Z,2504.00
2018-06-02T06:03:28.493Z,2444.00
2018-06-02T06:04:28.487Z,2740.00
2018-06-02T06:05:28.482Z,2620.00
2018-06-02T06:06:28.480Z,2604.00
2018-06-02T06:07:28.473Z,2964.00
2018-06-02T06:08:28.465Z,2748.00
2018-06-02T06:09:28.460Z,2700.00
2018-06-02T06:10:28.453Z,2608.00
2018-06-02T06:11:28.453Z,2096.00
2018-06-02T06:12:28.444Z,1996.00
2018-06-02T06:13:28.437Z,2140.00
2018-06-02T06:14:28.432Z,2216.00
2018-06-02T06:15:28.429Z,2248.00
2018-06-02T06:16:28.420Z,2628.00
2018-06-02T06:17:28.415Z,3112.00
2018-06-02T06:18:28.410Z,2864.00
2018-06-02T06:19:28.429Z,2196.00
2018-06-02T06:20:28.399Z,1880.00
2018-06-02T06:21:28.394Z,1872.00
2018-06-02T06:22:28.387Z,1904.00
2018-06-02T06:23:28.387Z,1916.00
2018-06-02T06:24:28.377Z,1832.00
2018-06-02T06:25:28.374Z,1776.00
2018-06-02T06:26:28.365Z,1860.00
2018-06-02T06:27:28.361Z,2108.00
2018-06-02T06:28:28.358Z,2264.00
2018-06-02T06:29:28.348Z,3008.00
2018-06-02T06:30:28.348Z,2928.00
2018-06-02T06:31:28.338Z,2532.00
2018-06-02T06:32:28.337Z,2616.00
2018-06-02T06:33:28.328Z,2744.00
2018-06-02T06:34:28.320Z,2516.00
2018-06-02T06:35:28.315Z,2392.00
2018-06-02T06:36:28.312Z,2428.00
2018-06-02T06:37:28.305Z,2384.00
2018-06-02T06:38:28.301Z,2256.00
2018-06-02T06:39:28.294Z,2364.00
2018-06-02T06:40:28.288Z,2188.00
2018-06-02T06:41:28.283Z,2160.00
2018-06-02T06:42:28.278Z,2224.00
2018-06-02T06:43:28.271Z,2272.00
2018-06-02T06:44:28.340Z,2240.00
2018-06-02T06:45:28.261Z,2452.00
2018-06-02T06:46:28.266Z,2428.00
2018-06-02T06:47:28.258Z,2300.00
2018-06-02T06:48:28.246Z,2256.00
2018-06-02T06:49:28.239Z,2320.00
2018-06-02T06:50:28.236Z,2484.00
2018-06-02T06:51:28.230Z,3204.00
2018-06-02T06:52:28.221Z,3164.00
2018-06-02T06:53:28.217Z,3112.00
2018-06-02T06:54:28.214Z,3372.00
2018-06-02T06:55:28.208Z,3592.00
2018-06-02T06:56:28.199Z,4108.00
2018-06-02T06:57:28.208Z,4684.00
2018-06-02T06:58:28.188Z,5548.00
2018-06-02T06:59:28.190Z,6220.00
2018-06-02T07:00:28.379Z,7540.00
2018-06-02T07:01:28.171Z,8416.00
2018-06-02T07:02:28.168Z,9028.00
2018-06-02T07:03:28.164Z,11924.00
2018-06-02T07:04:28.154Z,12072.00
2018-06-02T07:05:28.149Z,11308.00
2018-06-02T07:06:28.151Z,11732.00
2018-06-02T07:07:28.138Z,12116.00
2018-06-02T07:08:28.134Z,12828.00
2018-06-02T07:09:28.129Z,11288.00
2018-06-02T07:10:28.125Z,10640.00
2018-06-02T07:11:28.123Z,10544.00
2018-06-02T07:12:28.121Z,10556.00
2018-06-02T07:13:28.112Z,10060.00
2018-06-02T07:14:28.112Z,9256.00
2018-06-02T07:15:28.101Z,9096.00
2018-06-02T07:16:28.098Z,10028.00
2018-06-02T07:17:28.093Z,10616.00
2018-06-02T07:18:28.087Z,9620.00
2018-06-02T07:19:28.085Z,9668.00
2018-06-02T07:20:28.079Z,9800.00
2018-06-02T07:21:28.077Z,10384.00
2018-06-02T07:22:28.077Z,10096.00
2018-06-02T07:23:28.070Z,7848.00
2018-06-02T07:24:28.070Z,6720.00
2018-06-02T07:25:28.063Z,7080.00
2018-06-02T07:26:28.059Z,6812.00
2018-06-02T07:27:28.052Z,6032.00
2018-06-02T07:28:28.050Z,6032.00
2018-06-02T07:29:28.048Z,6080.00
2018-06-02T07:30:28.039Z,5744.00
2018-06-02T07:31:28.035Z,5336.00
2018-06-02T07:32:28.032Z,5084.00
2018-06-02T07:33:28.028Z,5424.00
2018-06-02T07:34:28.024Z,6244.00
2018-06-02T07:35:28.021Z,5704.00
2018-06-02T07:36:28.066Z,6220.00
2018-06-02T07:37:28.012Z,7564.00
2018-06-02T07:38:28.010Z,8860.00
2018-06-02T07:39:28.003Z,9476.00
2018-06-02T07:40:28.002Z,9972.00
2018-06-02T07:41:27.998Z,9756.00
2018-06-02T07:42:27.991Z,9980.00
2018-06-02T07:43:27.988Z,9644.00
2018-06-02T07:44:27.983Z,10320.00
2018-06-02T07:45:27.982Z,11384.00
2018-06-02T07:46:27.974Z,12548.00
2018-06-02T07:47:27.970Z,13444.00
2018-06-02T07:48:27.967Z,13204.00
2018-06-02T07:49:27.963Z,11924.00
2018-06-02T07:50:27.960Z,11540.00
2018-06-02T07:51:27.956Z,11184.00
2018-06-02T07:52:27.957Z,10276.00
2018-06-02T07:53:27.949Z,9796.00
2018-06-02T07:54:27.949Z,12112.00
2018-06-02T07:55:27.941Z,13000.00
2018-06-02T07:56:27.939Z,14528.00
2018-06-02T07:57:27.939Z,16832.00
2018-06-02T07:58:27.932Z,17472.00
2018-06-02T07:59:27.927Z,18112.00
2018-06-02T08:00:27.922Z,17504.00
2018-06-02T08:01:27.927Z,18912.00
2018-06-02T08:02:28.118Z,20512.00
2018-06-02T08:03:28.114Z,14764.00
2018-06-02T08:04:27.915Z,13124.00
2018-06-02T08:05:27.906Z,12128.00
2018-06-02T08:06:27.904Z,10984.00
2018-06-02T08:07:27.900Z,11612.00
2018-06-02T08:08:27.964Z,10828.00
2018-06-02T08:09:27.897Z,10188.00
2018-06-02T08:10:27.893Z,10632.00
2018-06-02T08:11:27.891Z,10216.00
2018-06-02T08:12:27.886Z,15084.00
2018-06-02T08:13:27.882Z,22272.00
2018-06-02T08:14:27.887Z,20864.00
2018-06-02T08:15:27.876Z,18976.00
2018-06-02T08:16:27.873Z,15472.00
2018-06-02T08:17:27.872Z,14048.00
2018-06-02T08:18:27.874Z,18048.00
2018-06-02T08:19:27.869Z,23488.00
2018-06-02T08:20:27.881Z,68960.00
2018-06-02T08:21:27.864Z,20800.00
2018-06-02T08:22:27.858Z,23040.00
2018-06-02T08:23:27.857Z,37536.00
2018-06-02T08:24:27.857Z,45056.00
2018-06-02T08:25:27.853Z,26336.00
2018-06-02T08:26:27.852Z,21664.00
2018-06-02T08:27:27.852Z,22208.00
2018-06-02T08:28:27.851Z,67296.00
2018-06-02T08:29:27.851Z,69088.00
2018-06-02T08:30:27.848Z,71072.00
2018-06-02T08:31:27.849Z,47936.00
2018-06-02T08:32:27.862Z,39616.00
2018-06-02T08:33:27.918Z,37312.00
2018-06-02T08:34:28.056Z,54880.00
2018-06-02T08:35:27.863Z,26400.00
2018-06-02T08:36:27.860Z,20896.00
2018-06-02T08:37:27.863Z,22720.00
2018-06-02T08:38:27.868Z,29856.00
2018-06-02T08:39:27.867Z,29376.00
2018-06-02T08:40:27.869Z,32800.00
2018-06-02T08:41:27.872Z,84512.00
2018-06-02T08:42:27.874Z,27520.00
2018-06-02T08:43:27.878Z,41856.00
2018-06-02T08:44:27.879Z,35456.00
2018-06-02T08:45:27.882Z,59328.00
2018-06-02T08:46:27.887Z,91456.00
2018-06-02T08:47:27.893Z,39648.00
2018-06-02T08:48:27.890Z,48192.00
2018-06-02T08:49:27.894Z,41824.00
2018-06-02T08:50:27.899Z,56864.00
2018-06-02T08:51:27.901Z,28960.00
2018-06-02T08:52:27.906Z,61696.00
2018-06-02T08:53:27.915Z,80512.00
2018-06-02T08:54:27.983Z,31744.00
2018-06-02T08:55:27.925Z,53152.00
2018-06-02T08:56:27.928Z,72384.00
2018-06-02T08:57:27.933Z,72672.00
2018-06-02T08:58:27.938Z,73728.00
2018-06-02T08:59:27.946Z,69568.00
2018-06-02T09:00:28.011Z,71648.00
2018-06-02T09:01:27.962Z,68832.00
2018-06-02T09:02:28.168Z,80704.00
2018-06-02T09:03:27.973Z,41344.00
2018-06-02T09:04:27.980Z,81024.00
2018-06-02T09:05:28.030Z,80544.00
2018-06-02T09:06:27.998Z,89600.00
2018-06-02T09:07:28.004Z,44064.00
2018-06-02T09:08:28.017Z,54144.00
2018-06-02T09:09:28.020Z,74496.00
2018-06-02T09:10:28.027Z,76032.00
2018-06-02T09:11:28.037Z,19392.00
2018-06-02T09:12:28.043Z,15340.00
2018-06-02T09:13:28.053Z,14028.00
2018-06-02T09:14:28.059Z,14196.00
2018-06-02T09:15:28.088Z,12964.00
2018-06-02T09:16:28.071Z,11768.00
2018-06-02T09:17:28.075Z,12636.00
2018-06-02T09:18:28.083Z,16800.00
2018-06-02T09:19:28.081Z,16640.00
2018-06-02T09:20:28.090Z,15864.00
2018-06-02T09:21:28.088Z,14872.00
2018-06-02T09:22:28.092Z,15024.00
2018-06-02T09:23:28.099Z,18080.00
2018-06-02T09:24:28.096Z,25248.00
2018-06-02T09:25:28.301Z,33632.00
2018-06-02T09:26:28.101Z,37952.00
2018-06-02T09:27:28.102Z,49248.00
2018-06-02T09:28:28.105Z,27616.00
2018-06-02T09:29:28.110Z,25408.00
2018-06-02T09:30:28.115Z,24928.00
2018-06-02T09:31:28.111Z,26496.00
2018-06-02T09:32:28.315Z,38592.00
2018-06-02T09:33:28.116Z,30048.00
2018-06-02T09:34:28.120Z,39680.00
2018-06-02T09:35:28.118Z,35712.00
2018-06-02T09:36:28.121Z,31168.00
2018-06-02T09:37:28.123Z,47264.00
2018-06-02T09:38:28.124Z,27232.00
2018-06-02T09:39:28.133Z,32576.00
2018-06-02T09:40:28.132Z,33024.00
2018-06-02T09:41:28.133Z,86304.00
2018-06-02T09:42:28.134Z,66272.00
2018-06-02T09:43:28.138Z,34528.00
2018-06-02T09:44:28.143Z,58400.00
2018-06-02T09:45:28.148Z,32640.00
2018-06-02T09:46:28.151Z,67072.00
2018-06-02T09:47:28.158Z,37824.00
2018-06-02T09:48:28.161Z,81472.00
2018-06-02T09:49:28.167Z,89376.00
2018-06-02T09:50:28.173Z,76704.00
2018-06-02T09:51:28.179Z,43552.00
2018-06-02T09:52:28.188Z,53216.00
2018-06-02T09:53:28.202Z,70112.00
2018-06-02T09:54:28.204Z,26944.00
2018-06-02T09:55:28.211Z,25024.00
2018-06-02T09:56:28.223Z,22752.00
2018-06-02T09:57:28.224Z,21216.00
2018-06-02T09:58:28.233Z,21504.00
2018-06-02T09:59:28.237Z,22048.00
2018-06-02T10:00:28.242Z,23392.00
2018-06-02T10:01:28.249Z,24256.00
2018-06-02T10:02:28.252Z,24960.00
2018-06-02T10:03:28.256Z,24672.00
2018-06-02T10:04:28.259Z,25472.00
2018-06-02T10:05:28.264Z,26496.00
2018-06-02T10:06:28.269Z,26752.00
2018-06-02T10:07:28.269Z,26752.00
2018-06-02T10:08:28.274Z,27936.00
2018-06-02T10:09:28.277Z,31520.00
2018-06-02T10:10:28.313Z,34016.00
2018-06-02T10:11:28.282Z,33216.00
2018-06-02T10:12:28.290Z,32704.00
2018-06-02T10:13:28.289Z,32032.00
2018-06-02T10:14:28.294Z,34144.00
2018-06-02T10:15:28.294Z,41888.00
2018-06-02T10:16:28.298Z,89984.00
2018-06-02T10:17:28.301Z,66176.00
2018-06-02T10:18:28.306Z,47936.00
2018-06-02T10:19:28.316Z,57056.00
2018-06-02T10:20:28.313Z,29152.00
2018-06-02T10:21:28.324Z,26528.00
2018-06-02T10:22:28.323Z,20544.00
2018-06-02T10:23:28.326Z,17376.00
2018-06-02T10:24:28.333Z,16960.00
2018-06-02T10:25:28.335Z,17056.00
2018-06-02T10:26:28.338Z,16252.00
2018-06-02T10:27:28.347Z,14492.00
2018-06-02T10:28:28.349Z,14828.00
2018-06-02T10:29:28.348Z,15728.00
2018-06-02T10:30:28.350Z,14460.00
2018-06-02T10:31:28.354Z,13152.00
2018-06-02T10:32:28.359Z,13848.00
2018-06-02T10:33:28.357Z,15100.00
2018-06-02T10:34:28.356Z,15400.00
2018-06-02T10:35:28.398Z,14980.00
2018-06-02T10:36:28.359Z,12400.00
2018-06-02T10:37:28.361Z,11692.00
2018-06-02T10:38:28.360Z,14196.00
2018-06-02T10:39:28.365Z,17312.00
2018-06-02T10:40:28.362Z,19040.00
2018-06-02T10:41:28.365Z,19840.00
2018-06-02T10:42:28.361Z,19840.00
2018-06-02T10:43:28.361Z,19840.00
2018-06-02T10:44:28.366Z,20832.00
2018-06-02T10:45:28.568Z,22464.00
2018-06-02T10:46:28.361Z,23712.00
2018-06-02T10:47:28.563Z,26048.00
2018-06-02T10:48:28.363Z,25664.00
2018-06-02T10:49:28.361Z,25472.00
2018-06-02T10:50:28.364Z,24288.00
2018-06-02T10:51:28.359Z,21344.00
2018-06-02T10:52:28.360Z,25120.00
2018-06-02T10:53:28.359Z,23360.00
2018-06-02T10:54:28.365Z,23712.00
2018-06-02T10:55:28.370Z,24096.00
2018-06-02T10:56:28.365Z,27712.00
2018-06-02T10:57:28.360Z,27936.00
2018-06-02T10:58:28.394Z,24416.00
2018-06-02T10:59:28.360Z,23296.00
2018-06-02T11:00:28.361Z,23040.00
2018-06-02T11:01:28.368Z,23168.00
2018-06-02T11:02:28.361Z,23328.00
2018-06-02T11:03:28.362Z,23840.00
2018-06-02T11:04:28.366Z,24192.00
2018-06-02T11:05:28.364Z,24800.00
2018-06-02T11:06:28.363Z,25440.00
2018-06-02T11:07:28.364Z,25472.00
2018-06-02T11:08:28.370Z,25312.00
2018-06-02T11:09:28.366Z,25824.00
2018-06-02T11:10:28.369Z,27104.00
2018-06-02T11:11:28.367Z,25984.00
2018-06-02T11:12:28.366Z,23968.00
2018-06-02T11:13:28.367Z,22208.00
2018-06-02T11:14:28.369Z,20032.00
2018-06-02T11:15:28.369Z,17984.00
2018-06-02T11:16:28.371Z,16104.00
2018-06-02T11:17:28.373Z,14676.00
2018-06-02T11:18:28.373Z,13404.00
2018-06-02T11:19:28.379Z,12624.00
2018-06-02T11:20:28.372Z,12164.00
2018-06-02T11:21:28.366Z,12040.00
2018-06-02T11:22:28.366Z,12228.00
2018-06-02T11:23:28.364Z,12476.00
2018-06-02T11:24:28.364Z,12788.00
2018-06-02T11:25:28.366Z,13080.00
2018-06-02T11:26:28.362Z,13472.00
2018-06-02T11:27:28.363Z,13812.00
2018-06-02T11:28:28.363Z,14124.00
2018-06-02T11:29:28.360Z,14612.00
2018-06-02T11:30:28.357Z,15212.00
2018-06-02T11:31:28.357Z,15720.00
2018-06-02T11:32:28.359Z,16736.00
2018-06-02T11:33:28.355Z,18016.00
2018-06-02T11:34:28.355Z,19360.00
2018-06-02T11:35:28.354Z,20448.00
2018-06-02T11:36:28.352Z,21856.00
2018-06-02T11:37:28.356Z,22880.00
2018-06-02T11:38:28.353Z,24512.00
2018-06-02T11:39:28.553Z,25344.00
2018-06-02T11:40:28.351Z,23136.00
2018-06-02T11:41:28.353Z,20320.00
2018-06-02T11:42:28.351Z,19200.00
2018-06-02T11:43:28.354Z,19584.00
2018-06-02T11:44:28.350Z,20320.00
2018-06-02T11:45:28.349Z,18720.00
2018-06-02T11:46:28.351Z,15564.00
2018-06-02T11:47:28.348Z,12836.00
2018-06-02T11:48:28.347Z,10644.00
2018-06-02T11:49:28.352Z,9688.00
2018-06-02T11:50:28.348Z,9184.00
2018-06-02T11:51:28.348Z,9688.00
2018-06-02T11:52:28.345Z,10080.00
2018-06-02T11:53:28.345Z,10452.00
2018-06-02T11:54:28.345Z,10484.00
2018-06-02T11:55:28.343Z,10388.00
2018-06-02T11:56:28.349Z,10056.00
2018-06-02T11:57:28.343Z,9636.00
2018-06-02T11:58:28.343Z,9224.00
2018-06-02T11:59:28.341Z,8760.00
2018-06-02T12:00:28.341Z,8280.00
2018-06-02T12:01:28.339Z,7700.00
2018-06-02T12:02:28.336Z,7096.00
2018-06-02T12:03:28.336Z,6676.00
2018-06-02T12:04:28.335Z,6512.00
2018-06-02T12:05:28.334Z,6620.00
2018-06-02T12:06:28.334Z,6980.00
2018-06-02T12:07:28.330Z,7272.00
2018-06-02T12:08:28.327Z,7636.00
2018-06-02T12:09:28.326Z,7724.00
2018-06-02T12:10:28.324Z,7776.00
2018-06-02T12:11:28.324Z,8124.00
2018-06-02T12:12:28.325Z,8712.00
2018-06-02T12:13:28.320Z,9476.00
2018-06-02T12:14:28.314Z,10324.00
2018-06-02T12:15:28.317Z,11020.00
2018-06-02T12:16:28.314Z,11796.00
2018-06-02T12:17:28.315Z,12748.00
2018-06-02T12:18:28.306Z,13276.00
2018-06-02T12:19:28.304Z,13488.00